Time;durP1;ratioP1;P1;durP2;ratioP2;P2;SDS_P1;SDS_P2;PMS_P1;PMS_P2;Temp;Humidity;BMP_temperature;BMP_pressure;BME280_temperature;BME280_humidity;BME280_pressure;Samples;Min_cycle;Max_cycle;Signal;HPM_P1;HPM_P2
2023/11/05 00:00:04;;;;;;;2.83;0.60;;;;;;;;;;4990031;28;20046;-83
2023/11/05 00:02:31;;;;;;;1.20;0.80;;;;;;;;;;4990823;28;20488;-86
2023/11/05 00:04:58;;;;;;;0.40;0.40;;;;;;;;;;4990159;28;20101;-84
2023/11/05 00:07:25;;;;;;;0.75;0.60;;;;;;;;;;4982895;28;20054;-86
2023/11/05 00:09:53;;;;;;;0.75;0.65;;;;;;;;;;4982853;28;20129;-84
2023/11/05 00:12:20;;;;;;;0.73;0.52;;;;;;;;;;4983278;28;20120;-83
2023/11/05 00:14:47;;;;;;;1.08;0.70;;;;;;;;;;4983009;28;20042;-82
2023/11/05 00:17:15;;;;;;;0.50;0.50;;;;;;;;;;4990709;28;20046;-84
2023/11/05 00:19:42;;;;;;;0.57;0.40;;;;;;;;;;4991987;28;20492;-85
2023/11/05 00:22:09;;;;;;;4.07;0.50;;;;;;;;;;5002441;28;20050;-85
2023/11/05 00:24:37;;;;;;;1.55;0.60;;;;;;;;;;5003811;28;20054;-84
2023/11/05 00:27:04;;;;;;;1.80;0.65;;;;;;;;;;5002768;28;20057;-82
2023/11/05 00:29:31;;;;;;;0.50;0.40;;;;;;;;;;4990256;28;20530;-83
2023/11/05 00:31:58;;;;;;;0.50;0.50;;;;;;;;;;4997654;28;20058;-82
2023/11/05 00:34:26;;;;;;;0.63;0.47;;;;;;;;;;4988932;28;20054;-83
2023/11/05 00:36:53;;;;;;;0.93;0.60;;;;;;;;;;4984422;28;20535;-83
2023/11/05 00:39:20;;;;;;;0.40;0.40;;;;;;;;;;4980013;28;20058;-82
2023/11/05 00:41:47;;;;;;;2.03;0.40;;;;;;;;;;4987983;28;20047;-82
2023/11/05 00:44:15;;;;;;;0.60;0.60;;;;;;;;;;4988414;28;20100;-85
2023/11/05 00:46:42;;;;;;;1.42;0.80;;;;;;;;;;4988073;28;20050;-83
2023/11/05 00:49:10;;;;;;;0.40;0.40;;;;;;;;;;4994237;28;20459;-82
2023/11/05 00:51:37;;;;;;;0.60;0.30;;;;;;;;;;4980711;28;20114;-83
2023/11/05 00:54:05;;;;;;;0.77;0.40;;;;;;;;;;4987921;28;20072;-82
2023/11/05 00:56:32;;;;;;;10.35;2.00;;;;;;;;;;4987898;28;20053;-84
2023/11/05 00:58:59;;;;;;;2.88;1.10;;;;;;;;;;4984739;28;20046;-82
2023/11/05 01:01:26;;;;;;;2.58;0.60;;;;;;;;;;4988107;28;20050;-85
2023/11/05 01:03:54;;;;;;;0.50;0.35;;;;;;;;;;4992800;28;20050;-83
2023/11/05 01:06:22;;;;;;;1.63;0.80;;;;;;;;;;4972193;28;20061;-84
2023/11/05 01:08:49;;;;;;;4.50;0.85;;;;;;;;;;4988079;28;20503;-83
2023/11/05 01:11:16;;;;;;;0.57;0.50;;;;;;;;;;4987869;28;20085;-82
2023/11/05 01:13:44;;;;;;;1.40;0.50;;;;;;;;;;4988147;28;20104;-83
2023/11/05 01:16:11;;;;;;;0.55;0.40;;;;;;;;;;4987928;28;20046;-82
2023/11/05 01:18:38;;;;;;;1.70;0.50;;;;;;;;;;4982349;28;20092;-82
2023/11/05 01:21:06;;;;;;;0.30;0.30;;;;;;;;;;4980209;28;20062;-82
2023/11/05 01:23:33;;;;;;;0.85;0.40;;;;;;;;;;4997401;28;20385;-82
2023/11/05 01:26:00;;;;;;;0.45;0.40;;;;;;;;;;4997108;28;20061;-82
2023/11/05 01:28:27;;;;;;;0.30;0.30;;;;;;;;;;4980382;28;20104;-82
2023/11/05 01:30:54;;;;;;;0.30;0.22;;;;;;;;;;4988141;28;20092;-81
2023/11/05 01:33:22;;;;;;;1.08;0.50;;;;;;;;;;4997239;28;20077;-82
2023/11/05 01:35:49;;;;;;;0.85;0.40;;;;;;;;;;4997300;28;20263;-81
2023/11/05 01:38:17;;;;;;;0.30;0.30;;;;;;;;;;4988422;28;20586;-81
2023/11/05 01:40:44;;;;;;;3.15;0.40;;;;;;;;;;4987372;28;20042;-82
2023/11/05 01:43:12;;;;;;;1.63;0.40;;;;;;;;;;4988440;28;20046;-81
2023/11/05 01:45:39;;;;;;;0.45;0.20;;;;;;;;;;4998314;28;20072;-81
2023/11/05 01:48:06;;;;;;;1.55;0.50;;;;;;;;;;4988516;28;20416;-83
2023/11/05 01:50:34;;;;;;;0.52;0.30;;;;;;;;;;4989525;28;20070;-81
2023/11/05 01:53:02;;;;;;;0.73;0.20;;;;;;;;;;4998462;28;20053;-81
2023/11/05 01:55:30;;;;;;;0.63;0.40;;;;;;;;;;4981279;28;20054;-81
2023/11/05 01:57:57;;;;;;;0.30;0.30;;;;;;;;;;4998790;28;20054;-82
2023/11/05 02:00:24;;;;;;;0.55;0.40;;;;;;;;;;4999888;28;20081;-81
2023/11/05 02:02:51;;;;;;;1.05;0.30;;;;;;;;;;4998078;28;20046;-82
2023/11/05 02:05:19;;;;;;;0.40;0.40;;;;;;;;;;4983054;28;20050;-82
2023/11/05 02:07:47;;;;;;;1.70;0.43;;;;;;;;;;5002674;28;20054;-83
2023/11/05 02:10:14;;;;;;;1.20;0.22;;;;;;;;;;4991298;28;20054;-82
2023/11/05 02:12:55;;;;;;;1.85;0.43;;;;;;;;;;5002404;28;20126;-83
2023/11/05 02:15:22;;;;;;;0.35;0.35;;;;;;;;;;5000836;28;20101;-82
2023/11/05 02:17:50;;;;;;;0.63;0.30;;;;;;;;;;4988462;28;20050;-82
2023/11/05 02:20:17;;;;;;;0.20;0.20;;;;;;;;;;4986505;28;20073;-83
2023/11/05 02:22:47;;;;;;;0.30;0.30;;;;;;;;;;4987845;28;20078;-83
2023/11/05 02:25:18;;;;;;;0.30;0.30;;;;;;;;;;5001128;28;20063;-82
2023/11/05 02:27:48;;;;;;;1.27;0.30;;;;;;;;;;4994383;28;20121;-82
2023/11/05 02:30:19;;;;;;;0.45;0.40;;;;;;;;;;5000465;28;20109;-81
2023/11/05 02:32:47;;;;;;;3.67;0.90;;;;;;;;;;5000388;28;20050;-81
2023/11/05 02:35:14;;;;;;;5.18;0.80;;;;;;;;;;4980323;28;20042;-81
2023/11/05 02:37:41;;;;;;;7.60;1.30;;;;;;;;;;4990127;28;20081;-83
2023/11/05 02:40:10;;;;;;;6.55;1.42;;;;;;;;;;4993794;28;20054;-82
2023/11/05 02:42:37;;;;;;;0.77;0.40;;;;;;;;;;4992500;28;20050;-83
2023/11/05 02:45:05;;;;;;;1.88;0.47;;;;;;;;;;4990163;28;20050;-82
2023/11/05 02:47:32;;;;;;;6.28;0.90;;;;;;;;;;4984722;28;20054;-82
2023/11/05 02:49:59;;;;;;;4.82;0.65;;;;;;;;;;4984450;28;20140;-82
2023/11/05 02:52:27;;;;;;;1.35;0.52;;;;;;;;;;4992177;28;20392;-82
2023/11/05 02:54:54;;;;;;;1.75;0.38;;;;;;;;;;4993204;28;20042;-81
2023/11/05 02:57:21;;;;;;;2.20;0.75;;;;;;;;;;4986554;28;20057;-83
2023/11/05 02:59:49;;;;;;;0.85;0.60;;;;;;;;;;4983626;28;20046;-81
2023/11/05 03:02:16;;;;;;;3.13;0.60;;;;;;;;;;4999686;28;20479;-81
2023/11/05 03:04:44;;;;;;;0.40;0.40;;;;;;;;;;4990505;28;20050;-81
2023/11/05 03:07:14;;;;;;;3.50;0.30;;;;;;;;;;4989729;28;20046;-81
2023/11/05 03:09:43;;;;;;;0.35;0.35;;;;;;;;;;4981835;28;20096;-80
2023/11/05 03:12:11;;;;;;;1.90;0.57;;;;;;;;;;4990008;28;20050;-80
2023/11/05 03:14:39;;;;;;;1.27;0.40;;;;;;;;;;4990555;28;20046;-81
2023/11/05 03:17:07;;;;;;;0.50;0.40;;;;;;;;;;4998394;28;20104;-80
2023/11/05 03:19:34;;;;;;;1.15;0.40;;;;;;;;;;4999967;28;20488;-80
2023/11/05 03:22:02;;;;;;;0.52;0.25;;;;;;;;;;5006101;28;20213;-79
2023/11/05 03:24:29;;;;;;;1.20;0.38;;;;;;;;;;5002337;28;20161;-80
2023/11/05 03:26:57;;;;;;;0.30;0.30;;;;;;;;;;5006336;28;20049;-81
2023/11/05 03:29:24;;;;;;;1.48;0.32;;;;;;;;;;5000765;28;20599;-82
2023/11/05 03:31:51;;;;;;;0.70;0.40;;;;;;;;;;5001031;28;20061;-81
2023/11/05 03:34:19;;;;;;;0.40;0.20;;;;;;;;;;4983722;28;20050;-83
2023/11/05 03:36:46;;;;;;;0.32;0.20;;;;;;;;;;4993568;28;20053;-82
2023/11/05 03:39:14;;;;;;;1.63;0.50;;;;;;;;;;5002173;28;20050;-82
2023/11/05 03:41:41;;;;;;;0.40;0.30;;;;;;;;;;4993334;28;20046;-82
2023/11/05 03:44:09;;;;;;;3.30;0.55;;;;;;;;;;4991989;28;20050;-81
2023/11/05 03:46:39;;;;;;;1.20;0.38;;;;;;;;;;5000933;28;20053;-84
2023/11/05 03:49:07;;;;;;;2.45;0.50;;;;;;;;;;5003398;28;20061;-82
2023/11/05 03:51:34;;;;;;;0.90;0.50;;;;;;;;;;4993874;28;20046;-82
2023/11/05 03:54:02;;;;;;;1.75;0.40;;;;;;;;;;4996643;28;20050;-82
2023/11/05 03:56:30;;;;;;;1.20;0.30;;;;;;;;;;4993061;28;20050;-82
2023/11/05 03:58:57;;;;;;;0.40;0.35;;;;;;;;;;4992316;28;20050;-82
2023/11/05 04:01:24;;;;;;;0.30;0.30;;;;;;;;;;5001169;28;20050;-82
2023/11/05 04:03:51;;;;;;;1.63;0.57;;;;;;;;;;4993524;28;20615;-82
2023/11/05 04:06:19;;;;;;;1.75;0.40;;;;;;;;;;4992756;28;20054;-82
2023/11/05 04:08:46;;;;;;;0.75;0.45;;;;;;;;;;4993152;28;20050;-82
2023/11/05 04:11:14;;;;;;;1.33;0.30;;;;;;;;;;4992762;28;20046;-83
2023/11/05 04:13:44;;;;;;;0.28;0.20;;;;;;;;;;5001672;28;20050;-83
2023/11/05 04:16:12;;;;;;;0.60;0.30;;;;;;;;;;4991372;28;20077;-82
2023/11/05 04:18:41;;;;;;;0.25;0.20;;;;;;;;;;4983899;28;20054;-82
2023/11/05 04:21:08;;;;;;;0.60;0.22;;;;;;;;;;4992242;28;20042;-82
2023/11/05 04:23:35;;;;;;;1.05;0.30;;;;;;;;;;5002358;28;20050;-83
2023/11/05 04:26:05;;;;;;;1.55;0.43;;;;;;;;;;5000690;28;20058;-82
2023/11/05 04:28:32;;;;;;;2.35;0.30;;;;;;;;;;4983887;28;20050;-82
2023/11/05 04:30:59;;;;;;;1.20;0.40;;;;;;;;;;4981126;28;20050;-82
2023/11/05 04:33:27;;;;;;;1.15;0.50;;;;;;;;;;4992736;28;20105;-82
2023/11/05 04:35:55;;;;;;;0.40;0.30;;;;;;;;;;4983952;28;20053;-82
2023/11/05 04:38:22;;;;;;;1.15;0.40;;;;;;;;;;4983795;28;20145;-82
2023/11/05 04:40:49;;;;;;;7.45;0.32;;;;;;;;;;5001071;28;20539;-82
2023/11/05 04:43:17;;;;;;;0.50;0.20;;;;;;;;;;4991884;28;20113;-82
2023/11/05 04:45:44;;;;;;;1.48;0.30;;;;;;;;;;4991756;28;20050;-82
2023/11/05 04:48:12;;;;;;;3.08;0.55;;;;;;;;;;4991869;28;20081;-82
2023/11/05 04:50:40;;;;;;;1.52;0.40;;;;;;;;;;4983281;28;20100;-82
2023/11/05 04:53:07;;;;;;;1.55;0.30;;;;;;;;;;5000867;28;20101;-83
2023/11/05 04:55:34;;;;;;;2.63;0.45;;;;;;;;;;4991790;28;20101;-82
2023/11/05 04:58:02;;;;;;;2.95;0.30;;;;;;;;;;4992181;28;20096;-83
2023/11/05 05:00:29;;;;;;;0.35;0.30;;;;;;;;;;4983248;28;20069;-83
2023/11/05 05:02:57;;;;;;;1.60;0.63;;;;;;;;;;4980231;28;20057;-82
2023/11/05 05:05:24;;;;;;;0.60;0.40;;;;;;;;;;4988177;28;20141;-82
2023/11/05 05:07:51;;;;;;;1.13;0.47;;;;;;;;;;4991986;28;20050;-83
2023/11/05 05:10:19;;;;;;;0.40;0.40;;;;;;;;;;4980461;28;20050;-83
2023/11/05 05:12:46;;;;;;;1.08;0.73;;;;;;;;;;4998638;28;20050;-84
2023/11/05 05:15:13;;;;;;;1.05;0.50;;;;;;;;;;4989024;28;20113;-83
2023/11/05 05:17:41;;;;;;;5.18;0.45;;;;;;;;;;4988689;28;20062;-83
2023/11/05 05:20:08;;;;;;;3.33;0.50;;;;;;;;;;4988293;28;20057;-82
2023/11/05 05:22:36;;;;;;;0.30;0.30;;;;;;;;;;4988848;28;20050;-83
2023/11/05 05:25:03;;;;;;;1.08;0.40;;;;;;;;;;4982250;28;20050;-82
2023/11/05 05:27:30;;;;;;;2.75;0.60;;;;;;;;;;4989964;28;20054;-82
2023/11/05 05:29:59;;;;;;;1.63;0.47;;;;;;;;;;4976749;28;20111;-83
2023/11/05 05:32:27;;;;;;;0.85;0.40;;;;;;;;;;4979525;28;20156;-82
2023/11/05 05:34:54;;;;;;;1.38;0.32;;;;;;;;;;4979393;28;20054;-82
2023/11/05 05:37:22;;;;;;;27.65;1.67;;;;;;;;;;4973155;28;20042;-80
2023/11/05 05:39:49;;;;;;;8.73;1.10;;;;;;;;;;4992896;28;20042;-83
2023/11/05 05:42:16;;;;;;;15.48;1.02;;;;;;;;;;4979794;28;20058;-82
2023/11/05 05:44:44;;;;;;;3.25;0.70;;;;;;;;;;4984392;28;20452;-82
2023/11/05 05:47:11;;;;;;;168.45;12.63;;;;;;;;;;4980644;28;20061;-83
2023/11/05 05:49:39;;;;;;;49.70;3.95;;;;;;;;;;4997141;28;20050;-84
2023/11/05 05:52:06;;;;;;;31.13;3.05;;;;;;;;;;4979632;28;20061;-84
2023/11/05 05:54:34;;;;;;;26.02;3.00;;;;;;;;;;4988608;28;20569;-84
2023/11/05 05:57:01;;;;;;;16.70;1.60;;;;;;;;;;4987696;28;20050;-83
2023/11/05 05:59:28;;;;;;;3.80;0.68;;;;;;;;;;4980995;28;20050;-81
2023/11/05 06:01:55;;;;;;;2.42;0.50;;;;;;;;;;4981416;28;20050;-81
2023/11/05 06:04:22;;;;;;;3.92;0.70;;;;;;;;;;4979215;28;20047;-84
2023/11/05 06:06:50;;;;;;;4.07;0.95;;;;;;;;;;4986565;28;20047;-83
2023/11/05 06:09:22;;;;;;;1.48;0.70;;;;;;;;;;4986088;28;20124;-83
2023/11/05 06:11:50;;;;;;;1.00;0.50;;;;;;;;;;4986560;28;20042;-84
2023/11/05 06:14:17;;;;;;;0.52;0.43;;;;;;;;;;5000806;28;20042;-85
2023/11/05 06:16:52;;;;;;;0.75;0.40;;;;;;;;;;4987103;28;20114;-85
2023/11/05 06:19:20;;;;;;;2.38;0.60;;;;;;;;;;4995346;28;20054;-86
2023/11/05 06:21:47;;;;;;;2.22;0.57;;;;;;;;;;5012816;28;20110;-81
2023/11/05 06:24:14;;;;;;;4.95;0.45;;;;;;;;;;5011506;28;20062;-85
2023/11/05 06:26:44;;;;;;;4.15;0.65;;;;;;;;;;4994104;28;20063;-85
2023/11/05 06:29:11;;;;;;;3.90;0.70;;;;;;;;;;4993720;28;20137;-84
2023/11/05 06:31:38;;;;;;;1.63;0.77;;;;;;;;;;4993914;28;20050;-84
2023/11/05 06:34:05;;;;;;;5.25;0.60;;;;;;;;;;5003446;28;20051;-84
2023/11/05 06:36:33;;;;;;;2.17;0.43;;;;;;;;;;4993897;28;20065;-84
2023/11/05 06:39:00;;;;;;;3.13;0.60;;;;;;;;;;4994245;28;20050;-85
2023/11/05 06:41:27;;;;;;;1.75;1.50;;;;;;;;;;4986848;28;20100;-83
2023/11/05 06:43:55;;;;;;;0.85;0.85;;;;;;;;;;4991796;28;20101;-83
2023/11/05 06:46:22;;;;;;;3.35;0.50;;;;;;;;;;4980564;28;20061;-85
2023/11/05 06:48:49;;;;;;;1.85;0.63;;;;;;;;;;4997770;28;20046;-82
2023/11/05 06:51:17;;;;;;;2.40;0.43;;;;;;;;;;4981219;28;20062;-86
2023/11/05 06:53:44;;;;;;;6.32;0.70;;;;;;;;;;4990800;28;20105;-84
2023/11/05 06:56:11;;;;;;;6.53;0.60;;;;;;;;;;4987668;28;20058;-85
2023/11/05 06:58:39;;;;;;;2.15;0.47;;;;;;;;;;4979793;28;20104;-85
2023/11/05 07:01:07;;;;;;;2.97;0.70;;;;;;;;;;4987138;28;20550;-84
2023/11/05 07:03:34;;;;;;;9.43;1.92;;;;;;;;;;4979495;28;20046;-84
2023/11/05 07:06:02;;;;;;;6.13;0.90;;;;;;;;;;4996458;28;20058;-84
2023/11/05 07:08:29;;;;;;;9.27;1.33;;;;;;;;;;4996958;28;20054;-85
2023/11/05 07:10:56;;;;;;;2.22;0.77;;;;;;;;;;4976509;28;20051;-83
2023/11/05 07:13:23;;;;;;;4.90;0.85;;;;;;;;;;4996541;28;20050;-83
2023/11/05 07:15:51;;;;;;;3.47;0.80;;;;;;;;;;4991470;28;20050;-85
2023/11/05 07:18:18;;;;;;;2.78;0.40;;;;;;;;;;4979169;28;20051;-84
2023/11/05 07:20:46;;;;;;;5.93;0.98;;;;;;;;;;4979416;28;20050;-84
2023/11/05 07:23:14;;;;;;;7.10;0.93;;;;;;;;;;4996057;28;20079;-84
2023/11/05 07:25:41;;;;;;;4.63;0.60;;;;;;;;;;4985805;28;20508;-84
2023/11/05 07:28:09;;;;;;;1.67;0.60;;;;;;;;;;4983356;28;20105;-84
2023/11/05 07:30:37;;;;;;;6.25;1.70;;;;;;;;;;4983672;28;20519;-83
2023/11/05 07:33:05;;;;;;;1.35;0.50;;;;;;;;;;4976615;28;20047;-84
2023/11/05 07:35:32;;;;;;;3.92;1.02;;;;;;;;;;4976585;28;20563;-84
2023/11/05 07:37:59;;;;;;;17.55;2.03;;;;;;;;;;4976276;28;20500;-85
2023/11/05 07:40:27;;;;;;;33.05;2.92;;;;;;;;;;4976657;28;20042;-84
2023/11/05 07:42:55;;;;;;;6.47;1.20;;;;;;;;;;4983576;28;20509;-85
2023/11/05 07:45:22;;;;;;;77.57;7.63;;;;;;;;;;4991766;28;20047;-84
2023/11/05 07:47:50;;;;;;;27.25;7.10;;;;;;;;;;4972148;28;20497;-84
2023/11/05 07:50:17;;;;;;;22.83;3.70;;;;;;;;;;4983128;28;20559;-84
2023/11/05 07:52:45;;;;;;;22.20;2.88;;;;;;;;;;4976550;28;20055;-85
2023/11/05 07:55:12;;;;;;;14.63;3.38;;;;;;;;;;4983155;28;20050;-84
2023/11/05 07:57:40;;;;;;;6.25;1.15;;;;;;;;;;4972247;28;20094;-85
2023/11/05 08:00:07;;;;;;;3.15;1.00;;;;;;;;;;4974736;28;20098;-84
2023/11/05 08:02:34;;;;;;;8.25;1.48;;;;;;;;;;4978339;28;20389;-84
2023/11/05 08:05:03;;;;;;;6.18;1.15;;;;;;;;;;4977917;28;20061;-84
2023/11/05 08:07:30;;;;;;;4.50;0.85;;;;;;;;;;4985585;28;20076;-84
2023/11/05 08:09:58;;;;;;;3.47;1.30;;;;;;;;;;4984342;28;20099;-84
2023/11/05 08:12:25;;;;;;;6.72;1.55;;;;;;;;;;4976626;28;20080;-84
2023/11/05 08:14:52;;;;;;;11.45;2.00;;;;;;;;;;4985991;28;20476;-81
2023/11/05 08:17:21;;;;;;;1.30;0.90;;;;;;;;;;4980342;28;20051;-81
2023/11/05 08:19:48;;;;;;;1.10;0.38;;;;;;;;;;4987871;28;20078;-83
2023/11/05 08:22:15;;;;;;;2.60;0.50;;;;;;;;;;4980576;28;20074;-83
2023/11/05 08:24:43;;;;;;;3.08;0.65;;;;;;;;;;4995535;28;20135;-84
2023/11/05 08:27:11;;;;;;;0.82;0.52;;;;;;;;;;4979124;28;20102;-82
2023/11/05 08:29:41;;;;;;;2.92;0.80;;;;;;;;;;4981525;28;20050;-83
2023/11/05 08:32:09;;;;;;;1.02;0.55;;;;;;;;;;4986749;28;20078;-82
2023/11/05 08:34:36;;;;;;;2.97;0.47;;;;;;;;;;4990103;28;20047;-83
2023/11/05 08:37:03;;;;;;;1.23;0.30;;;;;;;;;;4985749;28;20508;-82
2023/11/05 08:39:30;;;;;;;1.50;0.20;;;;;;;;;;4977960;28;20106;-82
2023/11/05 08:41:58;;;;;;;1.38;0.63;;;;;;;;;;4995305;28;20042;-81
2023/11/05 08:44:25;;;;;;;2.40;0.60;;;;;;;;;;4987361;28;20051;-81
2023/11/05 08:46:52;;;;;;;3.30;0.60;;;;;;;;;;4987921;28;20509;-81
2023/11/05 08:49:20;;;;;;;1.15;0.40;;;;;;;;;;4987468;28;20567;-81
2023/11/05 08:51:47;;;;;;;2.25;0.63;;;;;;;;;;4987936;28;20086;-82
2023/11/05 08:54:14;;;;;;;2.67;0.50;;;;;;;;;;4986884;28;20054;-82
2023/11/05 08:56:42;;;;;;;2.60;0.60;;;;;;;;;;4980250;28;20166;-81
2023/11/05 08:59:09;;;;;;;3.42;0.70;;;;;;;;;;4978854;28;20046;-81
2023/11/05 09:01:37;;;;;;;1.38;0.80;;;;;;;;;;4988256;28;20051;-81
2023/11/05 09:04:05;;;;;;;2.08;0.60;;;;;;;;;;4980916;28;20051;-82
2023/11/05 09:06:32;;;;;;;2.38;0.40;;;;;;;;;;4976594;28;20529;-81
2023/11/05 09:09:00;;;;;;;3.83;0.75;;;;;;;;;;4983873;28;20057;-82
2023/11/05 09:11:27;;;;;;;1.70;0.50;;;;;;;;;;4975719;28;20414;-81
2023/11/05 09:13:54;;;;;;;2.97;0.68;;;;;;;;;;4983556;28;20389;-81
2023/11/05 09:16:22;;;;;;;1.70;0.47;;;;;;;;;;4973010;28;20066;-81
2023/11/05 09:18:49;;;;;;;2.45;0.73;;;;;;;;;;5011841;28;20055;-81
2023/11/05 09:21:16;;;;;;;0.85;0.45;;;;;;;;;;5001455;28;20062;-81
2023/11/05 09:23:44;;;;;;;2.22;0.50;;;;;;;;;;4981069;28;20046;-82
2023/11/05 09:26:11;;;;;;;0.73;0.32;;;;;;;;;;4987600;28;20054;-82
2023/11/05 09:28:38;;;;;;;2.35;0.50;;;;;;;;;;4980230;28;20054;-82
2023/11/05 09:31:06;;;;;;;0.88;0.52;;;;;;;;;;4980366;28;20047;-81
2023/11/05 09:33:33;;;;;;;1.15;0.40;;;;;;;;;;4979923;28;20054;-81
2023/11/05 09:36:00;;;;;;;2.15;0.70;;;;;;;;;;4980160;28;20053;-82
2023/11/05 09:38:28;;;;;;;2.85;0.60;;;;;;;;;;4985697;28;20114;-81
2023/11/05 09:40:55;;;;;;;1.77;0.50;;;;;;;;;;4978999;28;20042;-81
2023/11/05 09:43:23;;;;;;;1.85;0.73;;;;;;;;;;4966312;28;20043;-80
2023/11/05 09:45:50;;;;;;;4.00;0.50;;;;;;;;;;4983109;28;20050;-81
2023/11/05 09:48:18;;;;;;;0.95;0.30;;;;;;;;;;4985586;28;20051;-80
2023/11/05 09:50:46;;;;;;;1.45;0.50;;;;;;;;;;4981466;28;20055;-80
2023/11/05 09:53:14;;;;;;;3.85;0.70;;;;;;;;;;4979125;28;20548;-80
2023/11/05 09:55:42;;;;;;;1.00;0.38;;;;;;;;;;4980776;28;20496;-81
2023/11/05 09:58:10;;;;;;;1.10;0.45;;;;;;;;;;4979205;28;20054;-81
2023/11/05 10:00:38;;;;;;;3.13;0.50;;;;;;;;;;4988190;28;20051;-82
2023/11/05 10:03:07;;;;;;;1.60;0.50;;;;;;;;;;4995952;28;20488;-80
2023/11/05 10:05:37;;;;;;;0.90;0.60;;;;;;;;;;4978964;28;20054;-82
2023/11/05 10:08:05;;;;;;;2.20;0.30;;;;;;;;;;4984673;28;20051;-83
2023/11/05 10:10:33;;;;;;;3.38;0.55;;;;;;;;;;4983708;28;20051;-83
2023/11/05 10:13:01;;;;;;;0.73;0.50;;;;;;;;;;4976960;28;20047;-82
2023/11/05 10:15:28;;;;;;;0.50;0.50;;;;;;;;;;4976602;28;20105;-81
2023/11/05 10:17:56;;;;;;;2.42;0.73;;;;;;;;;;4976902;28;20098;-83
2023/11/05 10:20:25;;;;;;;0.43;0.32;;;;;;;;;;4976453;28;20082;-83
2023/11/05 10:23:09;;;;;;;2.13;0.40;;;;;;;;;;4985841;28;20298;-82
2023/11/05 10:25:37;;;;;;;1.58;0.50;;;;;;;;;;4987561;28;20054;-82
2023/11/05 10:28:05;;;;;;;0.95;0.30;;;;;;;;;;4978755;28;20047;-82
2023/11/05 10:30:32;;;;;;;0.68;0.20;;;;;;;;;;4986205;28;20051;-82
2023/11/05 10:33:02;;;;;;;0.73;0.20;;;;;;;;;;4978913;28;20420;-80
2023/11/05 10:35:32;;;;;;;2.80;0.40;;;;;;;;;;4976973;28;20062;-84
2023/11/05 10:37:59;;;;;;;1.00;0.50;;;;;;;;;;4992558;28;20496;-83
2023/11/05 10:40:27;;;;;;;0.73;0.30;;;;;;;;;;4977575;28;20142;-83
2023/11/05 10:42:54;;;;;;;2.67;0.65;;;;;;;;;;4988867;28;20408;-84
2023/11/05 10:45:22;;;;;;;0.93;0.30;;;;;;;;;;4977998;28;20047;-84
2023/11/05 10:47:50;;;;;;;3.22;0.52;;;;;;;;;;4974293;28;20464;-83
2023/11/05 10:50:24;;;;;;;0.52;0.35;;;;;;;;;;4985429;28;20051;-84
2023/11/05 10:52:54;;;;;;;1.73;0.20;;;;;;;;;;4979302;28;20047;-83
2023/11/05 10:55:33;;;;;;;1.35;0.40;;;;;;;;;;4968290;28;20138;-84
2023/11/05 10:58:06;;;;;;;1.48;0.38;;;;;;;;;;4980192;28;20050;-85
2023/11/05 11:00:52;;;;;;;0.32;0.28;;;;;;;;;;4983366;28;20070;-85
2023/11/05 11:03:21;;;;;;;2.30;0.22;;;;;;;;;;4984437;28;20109;-83
2023/11/05 11:05:53;;;;;;;1.70;0.20;;;;;;;;;;4984144;28;20050;-83
2023/11/05 11:08:24;;;;;;;0.93;0.20;;;;;;;;;;4985958;28;20457;-83
2023/11/05 11:11:09;;;;;;;0.35;0.32;;;;;;;;;;4984289;28;20053;-85
2023/11/05 11:13:38;;;;;;;0.68;0.40;;;;;;;;;;5000089;28;20051;-85
2023/11/05 11:16:08;;;;;;;0.40;0.40;;;;;;;;;;4983487;28;20053;-84
2023/11/05 11:18:39;;;;;;;0.50;0.28;;;;;;;;;;4980681;28;20053;-84
2023/11/05 11:21:09;;;;;;;0.47;0.30;;;;;;;;;;4982742;28;20046;-85
2023/11/05 11:23:36;;;;;;;0.55;0.30;;;;;;;;;;4980833;28;20460;-83
2023/11/05 11:26:04;;;;;;;1.30;0.32;;;;;;;;;;4998117;28;20132;-84
2023/11/05 11:28:32;;;;;;;1.20;0.30;;;;;;;;;;4993552;28;20046;-85
2023/11/05 11:31:00;;;;;;;1.10;0.40;;;;;;;;;;4997026;28;20436;-83
2023/11/05 11:33:29;;;;;;;1.85;0.52;;;;;;;;;;4983496;28;20050;-85
2023/11/05 11:36:01;;;;;;;1.15;0.40;;;;;;;;;;4983999;28;20058;-84
2023/11/05 11:38:30;;;;;;;1.95;0.20;;;;;;;;;;5001667;28;20042;-84
2023/11/05 11:40:57;;;;;;;0.35;0.20;;;;;;;;;;5002634;28;20134;-82
2023/11/05 11:43:28;;;;;;;0.28;0.28;;;;;;;;;;4984898;28;20495;-82
2023/11/05 11:45:56;;;;;;;1.25;0.30;;;;;;;;;;4993956;28;20104;-85
2023/11/05 11:48:25;;;;;;;0.15;0.10;;;;;;;;;;5002507;28;20499;-83
2023/11/05 11:50:55;;;;;;;0.20;0.20;;;;;;;;;;4991434;28;20560;-83
2023/11/05 11:53:30;;;;;;;1.02;0.50;;;;;;;;;;4999341;28;20046;-84
2023/11/05 11:55:58;;;;;;;1.60;0.50;;;;;;;;;;4996335;28;20077;-81
2023/11/05 11:58:25;;;;;;;2.72;0.30;;;;;;;;;;4983775;28;20069;-80
2023/11/05 12:00:53;;;;;;;1.15;0.17;;;;;;;;;;5000085;28;20050;-82
2023/11/05 12:03:21;;;;;;;0.10;0.10;;;;;;;;;;5000418;28;20050;-79
2023/11/05 12:05:49;;;;;;;1.25;0.30;;;;;;;;;;4983623;28;20046;-80
2023/11/05 12:08:34;;;;;;;0.70;0.20;;;;;;;;;;5001612;28;20046;-79
2023/11/05 12:11:04;;;;;;;0.20;0.20;;;;;;;;;;4991264;28;20058;-81
2023/11/05 12:13:31;;;;;;;0.85;0.10;;;;;;;;;;4992289;28;20104;-80
2023/11/05 12:16:01;;;;;;;0.08;0.00;;;;;;;;;;4995255;28;20057;-80
2023/11/05 12:18:29;;;;;;;0.10;0.10;;;;;;;;;;4993766;28;20050;-79
2023/11/05 12:20:56;;;;;;;0.10;0.10;;;;;;;;;;4983960;28;20054;-80
2023/11/05 12:23:23;;;;;;;0.38;0.20;;;;;;;;;;4999101;28;20058;-80
2023/11/05 12:25:58;;;;;;;0.25;0.10;;;;;;;;;;4998535;28;20058;-81
2023/11/05 12:28:25;;;;;;;1.02;0.05;;;;;;;;;;4999536;28;20077;-80
2023/11/05 12:30:52;;;;;;;1.45;0.08;;;;;;;;;;4988921;28;20050;-78
2023/11/05 12:33:22;;;;;;;3.78;0.20;;;;;;;;;;4989667;28;20455;-81
2023/11/05 12:35:50;;;;;;;0.47;0.10;;;;;;;;;;4998321;28;20129;-82
2023/11/05 12:38:18;;;;;;;0.25;0.10;;;;;;;;;;4981433;28;20129;-81
2023/11/05 12:40:46;;;;;;;0.00;0.00;;;;;;;;;;4998506;28;20050;-80
2023/11/05 12:43:13;;;;;;;0.05;0.05;;;;;;;;;;4999448;28;20051;-83
2023/11/05 12:45:41;;;;;;;0.00;0.00;;;;;;;;;;4990126;28;20046;-80
2023/11/05 12:48:08;;;;;;;0.30;0.13;;;;;;;;;;4990056;28;20109;-81
2023/11/05 12:50:36;;;;;;;0.30;0.20;;;;;;;;;;4998610;28;20050;-80
2023/11/05 12:53:03;;;;;;;0.10;0.10;;;;;;;;;;4987415;28;20054;-80
2023/11/05 12:55:30;;;;;;;0.65;0.10;;;;;;;;;;4989223;28;20055;-80
2023/11/05 12:57:58;;;;;;;0.47;0.10;;;;;;;;;;4985519;28;20050;-79
2023/11/05 13:00:26;;;;;;;0.20;0.15;;;;;;;;;;4999543;28;20046;-80
2023/11/05 13:02:53;;;;;;;0.05;0.05;;;;;;;;;;4989060;28;20105;-80
2023/11/05 13:05:21;;;;;;;0.55;0.10;;;;;;;;;;4990170;28;20046;-80
2023/11/05 13:07:50;;;;;;;0.00;0.00;;;;;;;;;;4999577;28;20074;-80
2023/11/05 13:10:17;;;;;;;0.00;0.00;;;;;;;;;;4990816;28;20064;-80
2023/11/05 13:12:46;;;;;;;1.35;0.20;;;;;;;;;;4998223;28;20054;-80
2023/11/05 13:15:13;;;;;;;2.20;0.30;;;;;;;;;;4987661;28;20120;-80
2023/11/05 13:17:40;;;;;;;0.73;0.17;;;;;;;;;;4984205;28;20043;-83
2023/11/05 13:20:11;;;;;;;0.03;0.03;;;;;;;;;;5000421;28;20050;-82
2023/11/05 13:22:43;;;;;;;1.13;0.10;;;;;;;;;;4995112;28;20134;-82
2023/11/05 13:25:10;;;;;;;0.10;0.10;;;;;;;;;;5004519;28;20093;-81
2023/11/05 13:27:38;;;;;;;0.20;0.20;;;;;;;;;;4994550;28;20060;-81
2023/11/05 13:30:09;;;;;;;0.95;0.20;;;;;;;;;;4971489;28;20047;-82
2023/11/05 13:32:39;;;;;;;0.20;0.20;;;;;;;;;;4994241;28;20061;-79
2023/11/05 13:35:08;;;;;;;1.65;0.60;;;;;;;;;;4998520;28;20084;-79
2023/11/05 13:37:36;;;;;;;0.52;0.52;;;;;;;;;;4981845;28;20062;-80
2023/11/05 13:40:07;;;;;;;3.40;0.15;;;;;;;;;;4999086;28;20051;-80
2023/11/05 13:42:37;;;;;;;0.22;0.22;;;;;;;;;;4983208;28;20083;-79
2023/11/05 13:45:09;;;;;;;0.20;0.10;;;;;;;;;;4990206;28;20053;-80
2023/11/05 13:47:37;;;;;;;0.10;0.10;;;;;;;;;;4986897;28;20085;-80
2023/11/05 13:50:07;;;;;;;3.72;0.68;;;;;;;;;;4996145;28;20108;-79
2023/11/05 13:52:35;;;;;;;0.20;0.10;;;;;;;;;;4997167;28;20064;-79
2023/11/05 13:55:05;;;;;;;0.28;0.10;;;;;;;;;;4996390;28;20061;-79
2023/11/05 13:57:32;;;;;;;0.10;0.10;;;;;;;;;;4987123;28;20050;-80
2023/11/05 13:59:59;;;;;;;0.17;0.08;;;;;;;;;;4995666;28;20076;-80
2023/11/05 14:02:27;;;;;;;0.50;0.10;;;;;;;;;;4996277;28;20046;-80
2023/11/05 14:04:54;;;;;;;0.10;0.10;;;;;;;;;;4996318;28;20447;-80
2023/11/05 14:07:21;;;;;;;0.40;0.40;;;;;;;;;;4995945;28;20078;-79
2023/11/05 14:09:49;;;;;;;0.20;0.20;;;;;;;;;;4996438;28;20077;-80
2023/11/05 14:12:16;;;;;;;0.57;0.10;;;;;;;;;;4994099;28;20077;-80
2023/11/05 14:14:45;;;;;;;0.00;0.00;;;;;;;;;;4988740;28;20065;-82
2023/11/05 14:17:13;;;;;;;0.40;0.10;;;;;;;;;;4996468;28;20046;-81
2023/11/05 14:19:40;;;;;;;0.10;0.10;;;;;;;;;;4988754;28;20437;-82
2023/11/05 14:22:07;;;;;;;0.00;0.00;;;;;;;;;;4997525;28;20058;-80
2023/11/05 14:24:35;;;;;;;0.17;0.10;;;;;;;;;;4987596;28;20054;-81
2023/11/05 14:27:02;;;;;;;0.10;0.10;;;;;;;;;;4995792;28;20500;-79
2023/11/05 14:29:32;;;;;;;0.95;0.68;;;;;;;;;;4995879;28;20050;-79
2023/11/05 14:32:00;;;;;;;0.20;0.20;;;;;;;;;;4987039;28;20105;-81
2023/11/05 14:34:27;;;;;;;0.38;0.38;;;;;;;;;;4999899;28;20054;-82
2023/11/05 14:36:54;;;;;;;0.15;0.13;;;;;;;;;;4991217;28;20085;-81
2023/11/05 14:39:21;;;;;;;0.50;0.15;;;;;;;;;;5000063;28;20554;-80
2023/11/05 14:41:50;;;;;;;0.73;0.17;;;;;;;;;;4990897;28;20046;-82
2023/11/05 14:44:18;;;;;;;0.10;0.10;;;;;;;;;;4991221;28;20054;-80
2023/11/05 14:46:46;;;;;;;0.13;0.13;;;;;;;;;;4991686;28;20058;-83